createdAt,value
2022-11-05T00:01:40.393Z,100.00
2022-11-05T00:04:30.957Z,100.00
2022-11-05T00:07:19.552Z,100.00
2022-11-05T00:09:49.372Z,100.00
2022-11-05T00:12:36.957Z,100.00
2022-11-05T00:15:24.731Z,100.00
2022-11-05T00:17:54.513Z,100.00
2022-11-05T00:20:24.396Z,100.00
2022-11-05T00:23:12.201Z,100.00
2022-11-05T00:25:42.338Z,100.00
2022-11-05T00:28:12.277Z,100.00
2022-11-05T00:30:42.145Z,100.00
2022-11-05T00:33:12.233Z,100.00
2022-11-05T00:35:42.353Z,100.00
2022-11-05T00:38:12.117Z,100.00
2022-11-05T00:40:41.811Z,100.00
2022-11-05T00:43:29.246Z,100.00
2022-11-05T00:45:59.006Z,100.00
2022-11-05T00:48:46.399Z,100.00
2022-11-05T00:51:16.150Z,100.00
2022-11-05T00:53:45.847Z,100.00
2022-11-05T00:56:15.708Z,100.00
2022-11-05T00:58:45.753Z,100.00
2022-11-05T01:01:15.619Z,100.00
2022-11-05T01:03:51.309Z,100.00
2022-11-05T01:06:21.575Z,100.00
2022-11-05T01:08:51.332Z,100.00
2022-11-05T01:11:34.446Z,100.00
2022-11-05T01:14:05.387Z,100.00
2022-11-05T01:16:35.206Z,100.00
2022-11-05T01:19:05.833Z,100.00
2022-11-05T01:21:35.720Z,100.00
2022-11-05T01:24:05.952Z,100.00
2022-11-05T01:26:35.840Z,100.00
2022-11-05T01:29:05.722Z,100.00
2022-11-05T01:31:35.557Z,100.00
2022-11-05T01:34:05.264Z,100.00
2022-11-05T01:36:35.069Z,100.00
2022-11-05T01:39:05.008Z,100.00
2022-11-05T01:41:34.738Z,100.00
2022-11-05T01:44:04.691Z,100.00
2022-11-05T01:46:35.364Z,100.00
2022-11-05T01:49:06.365Z,100.00
2022-11-05T01:51:36.057Z,100.00
2022-11-05T01:54:06.374Z,100.00
2022-11-05T01:56:36.478Z,100.00
2022-11-05T01:59:06.879Z,100.00
2022-11-05T02:01:36.726Z,100.00
2022-11-05T02:04:07.760Z,100.00
2022-11-05T02:06:38.392Z,100.00
2022-11-05T02:09:08.471Z,100.00
2022-11-05T02:11:38.187Z,100.00
2022-11-05T02:14:08.095Z,100.00
2022-11-05T02:16:40.339Z,100.00
2022-11-05T02:19:14.932Z,100.00
2022-11-05T02:21:52.095Z,100.00
2022-11-05T02:24:29.999Z,100.00
2022-11-05T02:27:13.023Z,100.00
2022-11-05T02:30:08.671Z,100.00
2022-11-05T02:32:51.787Z,100.00
2022-11-05T02:35:24.731Z,100.00
2022-11-05T02:37:54.724Z,100.00
2022-11-05T02:40:26.310Z,100.00
2022-11-05T02:42:57.571Z,100.00
2022-11-05T02:45:34.514Z,100.00
2022-11-05T02:48:06.829Z,100.00
2022-11-05T02:50:37.849Z,100.00
2022-11-05T02:53:09.944Z,100.00
2022-11-05T02:55:41.547Z,100.00
2022-11-05T02:58:11.375Z,100.00
2022-11-05T03:00:45.675Z,100.00
2022-11-05T03:03:17.585Z,100.00
2022-11-05T03:05:50.030Z,100.00
2022-11-05T03:08:22.040Z,100.00
2022-11-05T03:10:52.400Z,100.00
2022-11-05T03:13:23.622Z,100.00
2022-11-05T03:15:57.183Z,100.00
2022-11-05T03:18:29.099Z,100.00
2022-11-05T03:21:00.579Z,100.00
2022-11-05T03:23:30.769Z,100.00
2022-11-05T03:26:03.473Z,100.00
2022-11-05T03:28:33.750Z,100.00
2022-11-05T03:31:03.524Z,100.00
2022-11-05T03:33:33.331Z,100.00
2022-11-05T03:36:03.301Z,100.00
2022-11-05T03:38:34.450Z,100.00
2022-11-05T03:41:05.076Z,100.00
2022-11-05T03:43:36.127Z,100.00
2022-11-05T03:46:06.795Z,100.00
2022-11-05T03:48:37.619Z,100.00
2022-11-05T03:51:09.391Z,100.00
2022-11-05T03:53:40.124Z,100.00
2022-11-05T03:56:11.883Z,100.00
2022-11-05T03:58:43.698Z,100.00
2022-11-05T04:01:13.867Z,100.00
2022-11-05T04:03:43.563Z,100.00
2022-11-05T04:06:31.119Z,100.00
2022-11-05T04:09:18.484Z,100.00
2022-11-05T04:12:02.024Z,100.00
2022-11-05T04:14:31.694Z,100.00
2022-11-05T04:17:07.649Z,100.00
2022-11-05T04:19:55.306Z,100.00
2022-11-05T04:22:42.760Z,100.00
2022-11-05T04:25:12.582Z,100.00
2022-11-05T04:27:42.571Z,100.00
2022-11-05T04:30:21.969Z,100.00
2022-11-05T04:33:01.962Z,100.00
2022-11-05T04:35:32.199Z,100.00
2022-11-05T04:38:02.236Z,100.00
2022-11-05T04:40:32.069Z,100.00
2022-11-05T04:43:01.977Z,100.00
2022-11-05T04:45:33.245Z,100.00
2022-11-05T04:48:03.104Z,100.00
2022-11-05T04:50:33.080Z,100.00
2022-11-05T04:53:03.074Z,100.00
2022-11-05T04:55:33.231Z,100.00
2022-11-05T04:58:03.264Z,100.00
2022-11-05T05:00:33.069Z,100.00
2022-11-05T05:03:03.449Z,100.00
2022-11-05T05:05:33.382Z,100.00
2022-11-05T05:08:04.118Z,100.00
2022-11-05T05:10:33.967Z,100.00
2022-11-05T05:13:03.686Z,100.00
2022-11-05T05:15:33.853Z,100.00
2022-11-05T05:18:03.595Z,100.00
2022-11-05T05:20:51.190Z,100.00
2022-11-05T05:23:20.991Z,100.00
2022-11-05T05:25:51.248Z,100.00
2022-11-05T05:28:21.242Z,100.00
2022-11-05T05:30:56.163Z,100.00
2022-11-05T05:33:28.921Z,100.00
2022-11-05T05:36:00.040Z,100.00
2022-11-05T05:38:30.185Z,100.00
2022-11-05T05:41:00.552Z,100.00
2022-11-05T05:43:32.466Z,100.00
2022-11-05T05:46:04.282Z,100.00
2022-11-05T05:48:34.097Z,100.00
2022-11-05T05:51:04.563Z,100.00
2022-11-05T05:53:34.482Z,100.00
2022-11-05T05:56:04.284Z,100.00
2022-11-05T05:58:34.943Z,100.00
2022-11-05T06:01:05.902Z,100.00
2022-11-05T06:03:35.702Z,100.00
2022-11-05T06:06:06.020Z,100.00
2022-11-05T06:08:35.810Z,100.00
2022-11-05T06:11:05.837Z,100.00
2022-11-05T06:13:35.867Z,100.00
2022-11-05T06:16:06.605Z,100.00
2022-11-05T06:18:36.495Z,100.00
2022-11-05T06:21:06.987Z,100.00
2022-11-05T06:23:37.050Z,100.00
2022-11-05T06:26:07.541Z,100.00
2022-11-05T06:28:37.699Z,100.00
2022-11-05T06:31:07.501Z,100.00
2022-11-05T06:33:37.162Z,100.00
2022-11-05T06:36:07.557Z,100.00
2022-11-05T06:38:37.859Z,100.00
2022-11-05T06:41:10.572Z,100.00
2022-11-05T06:43:40.654Z,100.00
2022-11-05T06:46:10.990Z,100.00
2022-11-05T06:48:40.673Z,100.00
2022-11-05T06:51:11.128Z,100.00
2022-11-05T06:53:40.807Z,100.00
2022-11-05T06:56:12.391Z,100.00
2022-11-05T06:58:42.522Z,100.00
2022-11-05T07:01:12.294Z,100.00
2022-11-05T07:03:42.158Z,100.00
2022-11-05T07:06:12.442Z,100.00
2022-11-05T07:08:42.156Z,100.00
2022-11-05T07:11:12.327Z,100.00
2022-11-05T07:13:42.101Z,100.00
2022-11-05T07:16:12.159Z,100.00
2022-11-05T07:18:42.455Z,100.00
2022-11-05T07:21:12.416Z,100.00
2022-11-05T07:23:42.634Z,100.00
2022-11-05T07:26:13.631Z,100.00
2022-11-05T07:28:44.133Z,100.00
2022-11-05T07:31:14.176Z,100.00
2022-11-05T07:33:44.297Z,100.00
2022-11-05T07:36:15.143Z,100.00
2022-11-05T07:38:45.352Z,100.00
2022-11-05T07:41:15.276Z,100.00
2022-11-05T07:43:45.183Z,100.00
2022-11-05T07:46:14.893Z,100.00
2022-11-05T07:48:44.888Z,100.00
2022-11-05T07:51:14.899Z,100.00
2022-11-05T07:53:45.668Z,100.00
2022-11-05T07:56:17.080Z,100.00
2022-11-05T07:58:49.654Z,100.00
2022-11-05T08:01:19.839Z,100.00
2022-11-05T08:03:49.765Z,100.00
2022-11-05T08:06:19.586Z,100.00
2022-11-05T08:08:49.625Z,100.00
2022-11-05T08:11:20.670Z,100.00
2022-11-05T08:13:50.400Z,100.00
2022-11-05T08:16:20.157Z,99.57
2022-11-05T08:18:49.929Z,99.85
2022-11-05T08:21:19.645Z,98.92
2022-11-05T08:23:49.363Z,97.07
2022-11-05T08:26:19.781Z,96.11
2022-11-05T08:28:49.491Z,95.82
2022-11-05T08:31:19.812Z,96.90
2022-11-05T08:33:49.653Z,95.04
2022-11-05T08:36:19.588Z,94.60
2022-11-05T08:38:49.428Z,92.87
2022-11-05T08:41:19.258Z,93.50
2022-11-05T08:43:49.047Z,91.05
2022-11-05T08:46:19.105Z,89.01
2022-11-05T08:48:50.329Z,90.49
2022-11-05T08:51:20.449Z,92.32
2022-11-05T08:53:50.607Z,92.46
2022-11-05T08:56:20.634Z,90.93
2022-11-05T08:58:50.310Z,90.84
2022-11-05T09:01:20.510Z,90.13
2022-11-05T09:03:53.298Z,88.80
2022-11-05T09:06:23.717Z,91.15
2022-11-05T09:08:54.582Z,91.87
2022-11-05T09:11:37.627Z,92.02
2022-11-05T09:14:14.337Z,91.58
2022-11-05T09:16:44.050Z,91.11
2022-11-05T09:19:13.930Z,91.05
2022-11-05T09:21:43.801Z,90.82
2022-11-05T09:24:13.684Z,90.76
2022-11-05T09:26:43.386Z,90.74
2022-11-05T09:29:14.495Z,90.89
2022-11-05T09:31:44.779Z,89.23
2022-11-05T09:34:14.514Z,88.37
2022-11-05T09:36:44.555Z,89.03
2022-11-05T09:39:14.715Z,88.04
2022-11-05T09:41:45.008Z,84.17
2022-11-05T09:44:15.248Z,85.31
2022-11-05T09:46:45.532Z,84.37
2022-11-05T09:49:17.660Z,83.12
2022-11-05T09:51:47.534Z,82.22
2022-11-05T09:54:17.328Z,82.71
2022-11-05T09:56:46.965Z,82.81
2022-11-05T09:59:19.342Z,82.70
2022-11-05T10:01:49.174Z,82.24
2022-11-05T10:04:20.489Z,80.66
2022-11-05T10:06:51.419Z,81.88
2022-11-05T10:09:22.039Z,82.09
2022-11-05T10:11:53.465Z,81.20
2022-11-05T10:14:24.566Z,81.92
2022-11-05T10:16:55.179Z,81.33
2022-11-05T10:19:25.633Z,81.26
2022-11-05T10:22:11.729Z,81.04
2022-11-05T10:24:42.439Z,81.31
2022-11-05T10:27:13.918Z,81.65
2022-11-05T10:29:44.033Z,81.84
2022-11-05T10:32:14.063Z,82.56
2022-11-05T10:34:43.930Z,82.55
2022-11-05T10:37:14.186Z,82.31
2022-11-05T10:39:43.942Z,81.71
2022-11-05T10:42:18.724Z,82.01
2022-11-05T10:44:49.151Z,82.08
2022-11-05T10:47:30.576Z,81.87
2022-11-05T10:50:00.706Z,82.05
2022-11-05T10:52:32.935Z,82.41
2022-11-05T10:55:03.272Z,82.68
2022-11-05T10:57:34.378Z,83.01
2022-11-05T11:00:20.861Z,83.22
2022-11-05T11:02:51.189Z,83.10
2022-11-05T11:05:23.121Z,83.25
2022-11-05T11:08:01.649Z,83.38
2022-11-05T11:10:31.937Z,83.57
2022-11-05T11:13:01.739Z,82.24
2022-11-05T11:15:32.844Z,80.33
2022-11-05T11:18:19.155Z,79.32
2022-11-05T11:20:48.853Z,78.19
2022-11-05T11:23:19.328Z,76.67
2022-11-05T11:25:49.384Z,72.81
2022-11-05T11:28:20.496Z,71.57
2022-11-05T11:30:51.397Z,71.91
2022-11-05T11:33:22.108Z,74.49
2022-11-05T11:35:52.289Z,75.70
2022-11-05T11:38:22.454Z,76.08
2022-11-05T11:40:52.297Z,76.80
2022-11-05T11:43:25.937Z,77.70
2022-11-05T11:46:00.716Z,78.59
2022-11-05T11:48:37.785Z,78.83
2022-11-05T11:51:18.372Z,79.04
2022-11-05T11:53:49.377Z,79.94
2022-11-05T11:56:20.737Z,81.22
2022-11-05T11:58:51.070Z,81.94
2022-11-05T12:01:40.952Z,82.86
2022-11-05T12:04:14.838Z,83.71
2022-11-05T12:06:46.464Z,84.68
2022-11-05T12:09:17.574Z,85.82
2022-11-05T12:11:48.495Z,86.09
2022-11-05T12:14:21.422Z,87.17
2022-11-05T12:17:03.256Z,87.94
2022-11-05T12:19:46.006Z,88.34
2022-11-05T12:22:20.872Z,88.65
2022-11-05T12:24:56.190Z,90.26
2022-11-05T12:27:30.017Z,91.31
2022-11-05T12:30:01.333Z,92.38
2022-11-05T12:32:47.496Z,92.74
2022-11-05T12:35:22.828Z,92.17
2022-11-05T12:37:53.577Z,92.41
2022-11-05T12:40:34.256Z,91.04
2022-11-05T12:43:11.438Z,89.04
2022-11-05T12:45:44.350Z,86.64
2022-11-05T12:48:17.732Z,85.21
2022-11-05T12:50:49.433Z,83.05
2022-11-05T12:53:25.196Z,82.10
2022-11-05T12:55:55.146Z,80.73
2022-11-05T12:58:25.195Z,79.36
2022-11-05T13:00:56.651Z,78.50
2022-11-05T13:03:28.779Z,77.98
2022-11-05T13:06:05.489Z,76.24
2022-11-05T13:08:38.137Z,75.36
2022-11-05T13:11:15.956Z,74.95
2022-11-05T13:13:46.975Z,75.25
2022-11-05T13:16:18.006Z,75.67
2022-11-05T13:18:48.408Z,75.91
2022-11-05T13:21:18.483Z,75.93
2022-11-05T13:23:51.116Z,75.34
2022-11-05T13:26:22.171Z,74.54
2022-11-05T13:28:52.688Z,74.24
2022-11-05T13:31:23.219Z,74.01
2022-11-05T13:33:52.875Z,74.25
2022-11-05T13:36:40.951Z,74.55
2022-11-05T13:39:12.737Z,74.96
2022-11-05T13:41:49.952Z,75.17
2022-11-05T13:44:31.256Z,75.07
2022-11-05T13:47:15.244Z,75.48
2022-11-05T13:49:52.265Z,76.13
2022-11-05T13:52:26.997Z,76.57
2022-11-05T13:55:19.978Z,76.83
2022-11-05T13:58:06.778Z,75.51
2022-11-05T14:00:36.976Z,74.94
2022-11-05T14:03:08.182Z,75.39
2022-11-05T14:05:38.856Z,75.51
2022-11-05T14:08:11.631Z,75.46
2022-11-05T14:10:41.988Z,75.66
2022-11-05T14:13:21.164Z,75.69
2022-11-05T14:16:02.412Z,75.75
2022-11-05T14:18:41.585Z,75.76
2022-11-05T14:21:24.941Z,75.89
2022-11-05T14:23:55.737Z,76.17
2022-11-05T14:26:26.446Z,76.29
2022-11-05T14:29:14.372Z,76.49
2022-11-05T14:32:08.908Z,77.03
2022-11-05T14:34:44.149Z,77.84
2022-11-05T14:37:23.065Z,78.92
2022-11-05T14:39:53.232Z,80.35
2022-11-05T14:42:23.653Z,80.18
2022-11-05T14:45:01.139Z,81.17
2022-11-05T14:47:31.797Z,83.18
2022-11-05T14:50:03.619Z,84.25
2022-11-05T14:52:33.197Z,85.69
2022-11-05T14:55:05.261Z,86.53
2022-11-05T14:58:07.007Z,87.66
2022-11-05T15:00:44.748Z,88.81
2022-11-05T15:03:31.758Z,89.47
2022-11-05T15:06:06.791Z,90.34
2022-11-05T15:08:39.833Z,91.56
2022-11-05T15:11:14.999Z,91.37
2022-11-05T15:13:52.384Z,91.89
2022-11-05T15:16:24.239Z,92.68
2022-11-05T15:18:54.120Z,93.30
2022-11-05T15:21:23.951Z,93.89
2022-11-05T15:23:56.579Z,94.94
2022-11-05T15:26:27.819Z,95.55
2022-11-05T15:28:57.553Z,96.42
2022-11-05T15:31:30.831Z,97.39
2022-11-05T15:34:14.004Z,97.96
2022-11-05T15:36:46.255Z,98.56
2022-11-05T15:39:30.028Z,99.48
2022-11-05T15:42:00.955Z,99.99
2022-11-05T15:44:32.593Z,100.00
2022-11-05T15:47:20.230Z,100.00
2022-11-05T15:49:52.914Z,100.00
2022-11-05T15:52:24.009Z,100.00
2022-11-05T15:55:08.495Z,100.00
2022-11-05T15:57:40.533Z,100.00
2022-11-05T16:00:17.383Z,100.00
2022-11-05T16:02:51.418Z,100.00
2022-11-05T16:05:23.018Z,100.00
2022-11-05T16:07:58.513Z,100.00
2022-11-05T16:10:42.084Z,100.00
2022-11-05T16:13:29.360Z,100.00
2022-11-05T16:15:59.609Z,100.00
2022-11-05T16:18:44.090Z,100.00
2022-11-05T16:21:22.963Z,100.00
2022-11-05T16:23:56.029Z,100.00
2022-11-05T16:27:00.428Z,100.00
2022-11-05T16:29:30.459Z,100.00
2022-11-05T16:32:02.154Z,100.00
2022-11-05T16:34:33.774Z,100.00
2022-11-05T16:37:30.449Z,100.00
2022-11-05T16:40:04.671Z,100.00
2022-11-05T16:42:39.375Z,100.00
2022-11-05T16:45:11.775Z,100.00
2022-11-05T16:47:41.539Z,100.00
2022-11-05T16:50:16.946Z,100.00
2022-11-05T16:52:47.375Z,100.00
2022-11-05T16:55:17.429Z,100.00
2022-11-05T16:57:48.702Z,100.00
2022-11-05T17:00:20.202Z,100.00
2022-11-05T17:02:50.534Z,100.00
2022-11-05T17:05:24.954Z,100.00
2022-11-05T17:07:57.790Z,100.00
2022-11-05T17:10:28.574Z,100.00
2022-11-05T17:12:58.918Z,100.00
2022-11-05T17:15:29.888Z,100.00
2022-11-05T17:18:00.661Z,100.00
2022-11-05T17:20:40.357Z,100.00
2022-11-05T17:23:11.970Z,100.00
2022-11-05T17:25:42.508Z,100.00
2022-11-05T17:28:13.062Z,100.00
2022-11-05T17:30:44.696Z,100.00
2022-11-05T17:33:18.386Z,100.00
2022-11-05T17:35:48.729Z,100.00
2022-11-05T17:38:19.360Z,100.00
2022-11-05T17:40:49.307Z,100.00
2022-11-05T17:43:19.834Z,100.00
2022-11-05T17:45:50.744Z,100.00
2022-11-05T17:48:20.906Z,100.00
2022-11-05T17:50:51.532Z,100.00
2022-11-05T17:53:21.528Z,100.00
2022-11-05T17:55:51.748Z,100.00
2022-11-05T17:58:21.831Z,100.00
2022-11-05T18:00:51.970Z,100.00
2022-11-05T18:03:21.742Z,100.00
2022-11-05T18:05:51.886Z,100.00
2022-11-05T18:08:23.005Z,100.00
2022-11-05T18:10:54.032Z,100.00
2022-11-05T18:13:24.375Z,100.00
2022-11-05T18:15:55.449Z,100.00
2022-11-05T18:18:25.802Z,100.00
2022-11-05T18:20:55.991Z,100.00
2022-11-05T18:23:25.821Z,100.00
2022-11-05T18:25:56.187Z,100.00
2022-11-05T18:28:26.658Z,100.00
2022-11-05T18:30:56.962Z,100.00
2022-11-05T18:33:26.807Z,100.00
2022-11-05T18:35:56.604Z,100.00
2022-11-05T18:38:26.645Z,100.00
2022-11-05T18:40:57.367Z,100.00
2022-11-05T18:43:27.159Z,100.00
2022-11-05T18:45:57.951Z,100.00
2022-11-05T18:48:27.878Z,100.00
2022-11-05T18:51:01.650Z,100.00
2022-11-05T18:53:32.757Z,100.00
2022-11-05T18:56:02.924Z,100.00
2022-11-05T18:58:32.824Z,100.00
2022-11-05T19:01:06.556Z,100.00
2022-11-05T19:03:38.987Z,100.00
2022-11-05T19:06:09.495Z,100.00
2022-11-05T19:08:39.730Z,100.00
2022-11-05T19:11:10.721Z,100.00
2022-11-05T19:13:40.491Z,100.00
2022-11-05T19:16:10.713Z,100.00
2022-11-05T19:18:40.445Z,100.00
2022-11-05T19:21:10.838Z,100.00
2022-11-05T19:23:40.746Z,100.00
2022-11-05T19:26:11.307Z,100.00
2022-11-05T19:28:41.341Z,100.00
2022-11-05T19:31:11.515Z,100.00
2022-11-05T19:33:41.384Z,100.00
2022-11-05T19:36:12.159Z,100.00
2022-11-05T19:38:42.096Z,100.00
2022-11-05T19:41:12.426Z,100.00
2022-11-05T19:43:42.515Z,100.00
2022-11-05T19:46:13.268Z,100.00
2022-11-05T19:48:43.202Z,100.00
2022-11-05T19:51:15.054Z,100.00
2022-11-05T19:53:45.156Z,100.00
2022-11-05T19:56:16.581Z,100.00
2022-11-05T19:58:46.278Z,100.00
2022-11-05T20:01:16.386Z,100.00
2022-11-05T20:03:46.389Z,100.00
2022-11-05T20:06:16.769Z,100.00
2022-11-05T20:09:15.363Z,100.00
2022-11-05T20:11:38.130Z,100.00
2022-11-05T20:14:08.102Z,100.00
2022-11-05T20:16:41.882Z,100.00
2022-11-05T20:19:12.463Z,100.00
2022-11-05T20:21:42.827Z,100.00
2022-11-05T20:24:15.233Z,100.00
2022-11-05T20:26:49.315Z,100.00
2022-11-05T20:29:19.123Z,100.00
2022-11-05T20:31:49.002Z,100.00
2022-11-05T20:34:18.795Z,100.00
2022-11-05T20:36:48.582Z,100.00
2022-11-05T20:39:18.490Z,100.00
2022-11-05T20:41:48.239Z,100.00
2022-11-05T20:44:18.271Z,100.00
2022-11-05T20:46:48.214Z,100.00
2022-11-05T20:49:24.944Z,100.00
2022-11-05T20:51:55.891Z,100.00
2022-11-05T20:54:26.204Z,100.00
2022-11-05T20:56:56.103Z,100.00
2022-11-05T20:59:26.039Z,100.00
2022-11-05T21:01:55.853Z,100.00
2022-11-05T21:04:25.650Z,100.00
2022-11-05T21:06:55.372Z,100.00
2022-11-05T21:09:25.076Z,100.00
2022-11-05T21:12:13.753Z,100.00
2022-11-05T21:14:44.780Z,100.00
2022-11-05T21:17:14.880Z,100.00
2022-11-05T21:19:45.616Z,100.00
2022-11-05T21:22:18.365Z,100.00
2022-11-05T21:24:48.617Z,100.00
2022-11-05T21:27:18.880Z,100.00
2022-11-05T21:29:49.386Z,100.00
2022-11-05T21:32:19.492Z,100.00
2022-11-05T21:34:49.254Z,100.00
2022-11-05T21:37:19.049Z,100.00
2022-11-05T21:39:49.445Z,100.00
2022-11-05T21:42:19.163Z,100.00
2022-11-05T21:44:49.880Z,100.00
2022-11-05T21:47:19.789Z,100.00
2022-11-05T21:49:49.932Z,100.00
2022-11-05T21:52:37.499Z,100.00
2022-11-05T21:55:25.273Z,100.00
2022-11-05T21:58:13.052Z,100.00
2022-11-05T22:00:43.446Z,100.00
2022-11-05T22:03:13.165Z,100.00
2022-11-05T22:05:43.435Z,100.00
2022-11-05T22:08:13.436Z,100.00
2022-11-05T22:10:43.610Z,100.00
2022-11-05T22:13:13.920Z,100.00
2022-11-05T22:15:44.054Z,100.00
2022-11-05T22:18:15.950Z,100.00
2022-11-05T22:20:46.291Z,100.00
2022-11-05T22:23:16.342Z,100.00
2022-11-05T22:25:46.355Z,100.00
2022-11-05T22:28:16.325Z,100.00
2022-11-05T22:30:46.384Z,100.00
2022-11-05T22:33:17.357Z,100.00
2022-11-05T22:35:47.655Z,100.00
2022-11-05T22:38:18.097Z,100.00
2022-11-05T22:40:48.309Z,100.00
2022-11-05T22:43:18.501Z,100.00
2022-11-05T22:45:49.009Z,100.00
2022-11-05T22:48:19.086Z,100.00
2022-11-05T22:50:49.186Z,100.00
2022-11-05T22:53:19.198Z,100.00
2022-11-05T22:55:49.220Z,100.00
2022-11-05T22:58:19.219Z,100.00
2022-11-05T23:00:49.193Z,100.00
2022-11-05T23:03:19.386Z,100.00
2022-11-05T23:05:57.124Z,100.00
2022-11-05T23:08:45.000Z,100.00
2022-11-05T23:11:34.482Z,100.00
2022-11-05T23:14:04.498Z,100.00
2022-11-05T23:16:52.026Z,100.00
2022-11-05T23:19:39.359Z,100.00
2022-11-05T23:22:27.789Z,100.00
2022-11-05T23:24:57.814Z,100.00
2022-11-05T23:27:27.722Z,100.00
2022-11-05T23:30:00.062Z,100.00
2022-11-05T23:32:31.127Z,100.00
2022-11-05T23:35:01.370Z,100.00
2022-11-05T23:37:49.296Z,100.00
2022-11-05T23:40:19.775Z,100.00
2022-11-05T23:43:07.255Z,100.00
2022-11-05T23:45:55.691Z,100.00
2022-11-05T23:48:27.306Z,100.00
2022-11-05T23:51:00.127Z,100.00
2022-11-05T23:53:30.061Z,100.00
2022-11-05T23:56:03.815Z,100.00
2022-11-05T23:58:33.891Z,100.00
